Time;durP1;ratioP1;P1;durP2;ratioP2;P2;SDS_P1;SDS_P2;PMS_P1;PMS_P2;Temp;Humidity;BMP_temperature;BMP_pressure;BME280_temperature;BME280_humidity;BME280_pressure;Samples;Min_cycle;Max_cycle;Signal;HPM_P1;HPM_P2
2022/10/22 00:02:18;;;;;;;10.65;6.47;;;11.20;99.90;;;;;;5034465;28;20390;-78
2022/10/22 00:04:45;;;;;;;10.45;6.28;;;11.50;99.90;;;;;;5031107;28;20069;-77
2022/10/22 00:07:11;;;;;;;10.13;6.00;;;11.50;99.90;;;;;;5028539;28;20055;-78
2022/10/22 00:09:37;;;;;;;11.23;6.55;;;11.40;99.90;;;;;;5033518;28;20020;-78
2022/10/22 00:12:03;;;;;;;11.02;6.43;;;11.50;99.90;;;;;;5030722;28;20440;-77
2022/10/22 00:14:29;;;;;;;10.35;6.35;;;11.40;99.90;;;;;;5028143;28;20079;-77
2022/10/22 00:16:55;;;;;;;12.10;6.10;;;11.40;99.90;;;;;;5029759;28;20651;-77
2022/10/22 00:19:20;;;;;;;9.02;6.22;;;11.30;99.90;;;;;;5040886;28;20009;-77
2022/10/22 00:21:46;;;;;;;20.35;6.28;;;11.40;99.90;;;;;;5030638;28;20032;-77
2022/10/22 00:24:12;;;;;;;14.15;6.03;;;11.30;99.90;;;;;;5031540;28;20473;-78
2022/10/22 00:26:39;;;;;;;12.18;6.10;;;11.30;99.90;;;;;;5028415;28;20021;-78
2022/10/22 00:29:04;;;;;;;12.43;5.95;;;11.20;99.90;;;;;;5030161;28;20071;-77
2022/10/22 00:31:30;;;;;;;8.65;6.43;;;11.30;99.90;;;;;;5030087;28;20021;-78
2022/10/22 00:33:56;;;;;;;10.85;6.47;;;11.30;99.90;;;;;;5030065;28;20485;-78
2022/10/22 00:36:21;;;;;;;10.98;6.28;;;11.30;99.90;;;;;;5030285;28;20037;-77
2022/10/22 00:38:47;;;;;;;9.27;6.32;;;11.30;99.90;;;;;;5035612;28;20040;-77
2022/10/22 00:41:13;;;;;;;9.45;6.43;;;11.20;99.90;;;;;;5028855;28;20029;-78
2022/10/22 00:43:57;;;;;;;11.68;6.63;;;11.20;99.90;;;;;;5022104;28;20018;-78
2022/10/22 00:46:23;;;;;;;9.20;6.40;;;11.20;99.90;;;;;;5033109;28;20071;-77
2022/10/22 00:48:49;;;;;;;11.88;6.25;;;11.20;99.90;;;;;;5027211;28;20025;-77
2022/10/22 00:51:15;;;;;;;9.52;5.88;;;11.20;99.90;;;;;;5029528;28;20030;-78
2022/10/22 00:53:48;;;;;;;12.40;6.47;;;11.20;99.90;;;;;;5025669;28;20029;-77
2022/10/22 00:56:14;;;;;;;11.23;6.30;;;11.10;99.90;;;;;;5025188;28;20053;-78
2022/10/22 00:58:47;;;;;;;11.32;6.55;;;11.00;99.90;;;;;;5033752;28;20025;-78
2022/10/22 01:01:20;;;;;;;12.02;6.57;;;11.20;99.90;;;;;;5030209;28;20116;-78
2022/10/22 01:03:46;;;;;;;11.90;6.93;;;11.30;99.90;;;;;;5035994;28;20061;-78
2022/10/22 01:06:21;;;;;;;9.45;6.88;;;11.30;99.90;;;;;;5030108;28;20037;-78
2022/10/22 01:08:49;;;;;;;11.43;6.57;;;11.40;99.90;;;;;;5037896;28;20539;-78
2022/10/22 01:11:45;;;;;;;11.68;7.22;;;11.50;99.90;;;;;;5032098;28;20056;-77
2022/10/22 01:14:27;;;;;;;11.50;6.93;;;11.60;99.90;;;;;;5023938;28;20029;-77
2022/10/22 01:17:00;;;;;;;15.32;7.22;;;11.70;99.90;;;;;;5029558;28;20362;-77
2022/10/22 01:20:03;;;;;;;12.77;6.38;;;11.70;99.90;;;;;;5029615;28;20040;-78
2022/10/22 01:22:41;;;;;;;11.93;6.45;;;11.70;99.90;;;;;;5024873;28;20469;-77
2022/10/22 01:25:09;;;;;;;11.13;6.65;;;11.70;99.90;;;;;;5026979;28;20067;-78
2022/10/22 01:28:19;;;;;;;10.48;6.82;;;11.80;99.90;;;;;;5035135;28;20491;-77
2022/10/22 01:30:47;;;;;;;;;;;11.80;99.90;;;;;;5033053;28;20427;-77
2022/10/22 01:33:17;;;;;;;13.02;6.30;;;11.90;99.90;;;;;;5042016;28;20330;-78
2022/10/22 01:35:44;;;;;;;13.73;6.70;;;12.00;99.90;;;;;;5038330;28;20061;-77
2022/10/22 01:38:16;;;;;;;13.43;6.75;;;12.10;99.90;;;;;;5040363;28;20036;-77
2022/10/22 01:40:42;;;;;;;14.27;5.95;;;12.20;99.90;;;;;;5034011;28;20029;-77
2022/10/22 01:43:09;;;;;;;12.27;6.25;;;12.20;99.90;;;;;;5040390;28;20021;-77
2022/10/22 01:45:45;;;;;;;12.93;6.40;;;12.20;99.90;;;;;;5031168;28;20024;-78
2022/10/22 01:48:50;;;;;;;13.75;6.80;;;12.30;99.90;;;;;;5043008;28;20556;-78
2022/10/22 01:51:37;;;;;;;12.00;6.05;;;12.40;99.90;;;;;;5029916;28;20038;-77
2022/10/22 01:54:16;;;;;;;11.05;5.82;;;12.40;99.90;;;;;;5031414;28;20032;-78
2022/10/22 01:56:58;;;;;;;10.32;5.53;;;12.50;99.90;;;;;;5034595;28;20056;-77
2022/10/22 01:59:52;;;;;;;13.32;6.18;;;12.40;99.90;;;;;;5032943;28;20469;-77
2022/10/22 02:02:27;;;;;;;13.20;6.45;;;12.60;99.90;;;;;;5034353;28;20026;-78
2022/10/22 02:05:06;;;;;;;13.63;6.45;;;12.60;99.90;;;;;;5034305;28;20033;-77
2022/10/22 02:07:37;;;;;;;11.02;6.82;;;12.60;99.90;;;;;;5035989;28;20026;-77
2022/10/22 02:10:06;;;;;;;13.90;6.53;;;12.60;99.90;;;;;;5029449;28;20075;-77
2022/10/22 02:12:33;;;;;;;14.30;6.90;;;12.60;99.90;;;;;;5032546;28;20496;-78
2022/10/22 02:15:01;;;;;;;15.35;6.85;;;12.60;99.90;;;;;;5035769;28;20021;-78
2022/10/22 02:17:31;;;;;;;16.77;7.03;;;12.70;99.90;;;;;;5034428;28;20025;-78
2022/10/22 02:20:02;;;;;;;13.98;7.45;;;12.70;99.90;;;;;;5031560;28;20110;-78
2022/10/22 02:22:28;;;;;;;15.32;7.20;;;12.70;99.90;;;;;;5032552;28;20033;-78
2022/10/22 02:24:55;;;;;;;11.02;6.28;;;12.80;99.90;;;;;;5041623;28;20053;-78
2022/10/22 02:27:28;;;;;;;13.70;6.70;;;12.80;99.90;;;;;;5032832;28;20028;-78
2022/10/22 02:30:14;;;;;;;13.73;8.07;;;12.80;99.90;;;;;;5023815;28;20668;-77
2022/10/22 02:32:49;;;;;;;13.75;7.13;;;12.80;99.90;;;;;;5039415;28;20539;-78
2022/10/22 02:35:19;;;;;;;12.30;6.72;;;12.90;99.90;;;;;;5027580;28;20424;-78
2022/10/22 02:37:45;;;;;;;16.73;7.38;;;12.80;99.90;;;;;;5032840;28;20072;-78
2022/10/22 02:40:12;;;;;;;13.18;7.20;;;12.90;99.90;;;;;;5034446;28;20091;-78
2022/10/22 02:42:39;;;;;;;14.93;6.78;;;12.90;99.90;;;;;;5032845;28;20068;-78
2022/10/22 02:45:05;;;;;;;11.30;6.38;;;12.90;99.90;;;;;;5038377;28;20083;-78
2022/10/22 02:47:31;;;;;;;14.32;7.05;;;12.90;99.90;;;;;;5033127;28;20018;-78
2022/10/22 02:49:56;;;;;;;14.10;6.95;;;13.00;99.90;;;;;;5038929;28;20393;-78
2022/10/22 02:52:22;;;;;;;12.60;7.10;;;12.90;99.90;;;;;;5039344;28;20026;-78
2022/10/22 02:54:47;;;;;;;13.30;6.70;;;13.00;99.90;;;;;;5029157;28;20029;-78
2022/10/22 02:57:13;;;;;;;13.70;6.28;;;12.90;99.90;;;;;;5036354;28;20541;-77
2022/10/22 02:59:38;;;;;;;16.40;6.63;;;12.90;99.90;;;;;;5039805;28;20120;-78
2022/10/22 03:02:04;;;;;;;14.05;6.20;;;12.90;99.90;;;;;;5032578;28;20032;-78
2022/10/22 03:04:30;;;;;;;12.98;6.32;;;13.00;99.90;;;;;;5032170;28;20274;-78
2022/10/22 03:06:55;;;;;;;10.85;5.93;;;13.00;99.90;;;;;;5033376;28;20057;-77
2022/10/22 03:09:21;;;;;;;12.82;6.47;;;13.00;99.90;;;;;;5032969;28;20389;-77
2022/10/22 03:11:46;;;;;;;16.40;7.32;;;13.00;99.90;;;;;;5036606;28;20064;-78
2022/10/22 03:14:12;;;;;;;13.07;5.90;;;13.00;99.90;;;;;;5042727;28;20052;-78
2022/10/22 03:16:37;;;;;;;16.23;6.43;;;13.20;99.90;;;;;;5032099;28;20025;-78
2022/10/22 03:19:03;;;;;;;13.27;6.15;;;13.00;99.90;;;;;;5032916;28;20030;-78
2022/10/22 03:21:40;;;;;;;11.95;6.10;;;13.00;99.90;;;;;;5031590;28;20065;-78
2022/10/22 03:24:21;;;;;;;9.98;5.65;;;13.10;99.90;;;;;;5040204;28;20028;-78
2022/10/22 03:26:48;;;;;;;;;;;13.00;99.90;;;;;;5029537;28;20033;-78
2022/10/22 03:29:15;;;;;;;10.80;5.50;;;13.00;97.20;;;;;;5030873;28;20368;-78
2022/10/22 03:31:41;;;;;;;11.15;5.53;;;12.90;92.50;;;;;;5032007;28;20029;-78
2022/10/22 03:34:06;;;;;;;9.50;5.53;;;12.90;76.30;;;;;;5033563;28;20111;-78
2022/10/22 03:36:32;;;;;;;12.20;5.43;;;12.80;64.70;;;;;;5031712;28;20065;-78
2022/10/22 03:39:00;;;;;;;14.93;5.53;;;12.80;68.80;;;;;;5032460;28;20117;-78
2022/10/22 03:41:26;;;;;;;11.25;5.38;;;12.80;72.70;;;;;;5038847;28;20037;-78
2022/10/22 03:43:52;;;;;;;12.02;5.95;;;12.70;50.30;;;;;;5031685;28;20099;-78
2022/10/22 03:46:19;;;;;;;9.45;4.88;;;12.60;29.40;;;;;;5031141;28;20045;-78
2022/10/22 03:48:44;;;;;;;14.18;5.63;;;12.60;33.60;;;;;;5040386;28;20041;-78
2022/10/22 03:51:10;;;;;;;8.60;5.30;;;12.60;48.00;;;;;;5035853;28;20021;-78
2022/10/22 03:53:36;;;;;;;11.52;4.72;;;12.60;36.30;;;;;;5027511;28;20025;-78
2022/10/22 03:56:06;;;;;;;16.20;5.95;;;12.50;28.70;;;;;;5040614;28;20021;-78
2022/10/22 03:58:31;;;;;;;9.57;5.38;;;12.50;22.70;;;;;;5034131;28;20497;-78
2022/10/22 04:01:07;;;;;;;11.68;5.70;;;12.40;20.10;;;;;;5038087;28;20056;-78
2022/10/22 04:03:33;;;;;;;11.32;4.80;;;12.50;42.60;;;;;;5036375;28;20128;-78
2022/10/22 04:06:10;;;;;;;10.75;5.72;;;12.50;66.60;;;;;;5027225;28;20108;-78
2022/10/22 04:08:38;;;;;;;11.40;5.90;;;12.50;27.60;;;;;;5039134;28;20481;-78
2022/10/22 04:11:04;;;;;;;11.82;6.03;;;12.50;39.50;;;;;;5030552;28;20021;-78
2022/10/22 04:13:30;;;;;;;13.93;5.80;;;12.50;36.40;;;;;;5031990;28;20033;-78
2022/10/22 04:16:29;;;;;;;7.80;5.28;;;12.50;29.80;;;;;;5031096;28;20030;-78
2022/10/22 04:18:56;;;;;;;10.40;4.90;;;12.40;28.50;;;;;;5030360;28;20030;-77
2022/10/22 04:21:22;;;;;;;9.88;5.50;;;12.50;19.90;;;;;;5030256;28;20065;-78
2022/10/22 04:23:50;;;;;;;8.80;4.35;;;12.50;31.20;;;;;;5028991;28;20065;-78
2022/10/22 04:26:17;;;;;;;11.13;5.07;;;12.50;14.30;;;;;;5030007;28;20029;-78
2022/10/22 04:28:43;;;;;;;11.45;5.43;;;12.60;1.90;;;;;;5025051;28;20435;-78
2022/10/22 04:31:11;;;;;;;9.00;4.50;;;12.50;1.00;;;;;;5029351;28;20033;-78
2022/10/22 04:33:37;;;;;;;11.80;5.05;;;12.50;1.00;;;;;;5036104;28;20408;-78
2022/10/22 04:36:10;;;;;;;13.73;4.90;;;12.40;1.00;;;;;;5030140;28;20476;-78
2022/10/22 04:38:37;;;;;;;10.50;4.82;;;12.40;1.00;;;;;;5029948;28;20129;-78
2022/10/22 04:41:17;;;;;;;12.45;5.05;;;12.30;1.00;;;;;;5031402;28;20045;-78
2022/10/22 04:43:43;;;;;;;10.55;4.70;;;12.40;1.00;;;;;;5034769;28;20067;-78
2022/10/22 04:46:09;;;;;;;11.25;5.15;;;12.40;1.00;;;;;;5030955;28;20025;-78
2022/10/22 04:48:40;;;;;;;10.10;4.28;;;12.40;5.20;;;;;;5026682;28;20014;-78
2022/10/22 04:51:07;;;;;;;8.05;4.32;;;12.40;7.30;;;;;;5028759;28;20410;-78
2022/10/22 04:53:37;;;;;;;9.95;4.20;;;12.50;5.10;;;;;;5036794;28;20048;-78
2022/10/22 04:56:06;;;;;;;12.57;4.88;;;12.40;2.60;;;;;;5033413;28;20511;-78
2022/10/22 04:58:32;;;;;;;11.02;4.30;;;12.40;1.00;;;;;;5026797;28;20504;-78
2022/10/22 05:00:57;;;;;;;13.55;4.10;;;12.40;2.40;;;;;;5029750;28;20041;-78
2022/10/22 05:03:27;;;;;;;12.88;4.22;;;12.50;7.90;;;;;;5030852;28;20535;-78
2022/10/22 05:05:52;;;;;;;12.60;4.10;;;12.50;10.70;;;;;;5033672;28;20087;-77
2022/10/22 05:08:18;;;;;;;11.07;3.53;;;12.50;23.20;;;;;;5032214;28;20029;-78
2022/10/22 05:10:43;;;;;;;10.13;3.28;;;12.40;1.00;;;;;;5031437;28;20033;-77
2022/10/22 05:13:09;;;;;;;9.75;3.65;;;12.50;13.60;;;;;;5029475;28;20026;-78
2022/10/22 05:15:34;;;;;;;13.00;3.90;;;12.60;13.00;;;;;;5050132;28;20049;-77
2022/10/22 05:18:00;;;;;;;9.07;3.60;;;12.50;1.00;;;;;;5036199;28;20053;-77
2022/10/22 05:20:26;;;;;;;11.65;3.75;;;12.60;19.30;;;;;;5035908;28;20029;-77
2022/10/22 05:22:51;;;;;;;10.93;3.90;;;12.60;22.40;;;;;;5035528;28;20036;-78
2022/10/22 05:25:17;;;;;;;11.57;3.67;;;12.60;37.70;;;;;;5035755;28;20029;-78
2022/10/22 05:27:42;;;;;;;9.40;3.80;;;12.80;31.90;;;;;;5035512;28;20029;-78
2022/10/22 05:30:08;;;;;;;12.98;3.88;;;12.70;28.10;;;;;;5035600;28;20018;-78
2022/10/22 05:32:34;;;;;;;9.23;3.55;;;12.80;8.90;;;;;;5035446;28;20014;-78
2022/10/22 05:35:00;;;;;;;11.18;3.85;;;12.80;11.40;;;;;;5035708;28;20025;-78
2022/10/22 05:37:25;;;;;;;7.88;3.63;;;12.90;1.00;;;;;;5027993;28;20018;-78
2022/10/22 05:39:51;;;;;;;8.05;3.80;;;12.80;1.00;;;;;;5016150;28;20026;-78
2022/10/22 05:42:16;;;;;;;11.45;4.07;;;12.80;1.00;;;;;;5016035;28;20030;-78
2022/10/22 05:44:42;;;;;;;11.82;4.00;;;12.90;1.00;;;;;;5043238;28;20053;-78
2022/10/22 05:47:08;;;;;;;10.25;3.90;;;12.80;1.00;;;;;;5026770;28;20022;-78
2022/10/22 05:49:34;;;;;;;9.80;4.03;;;12.90;1.00;;;;;;5040119;28;20096;-78
2022/10/22 05:52:00;;;;;;;10.60;4.38;;;12.80;1.00;;;;;;5030169;28;20105;-78
2022/10/22 05:54:25;;;;;;;10.10;3.92;;;12.90;1.00;;;;;;5024100;28;20231;-78
2022/10/22 05:56:51;;;;;;;9.60;4.57;;;12.90;1.00;;;;;;5038163;28;20056;-78
2022/10/22 05:59:16;;;;;;;9.40;4.57;;;12.90;1.00;;;;;;5031412;28;20045;-78
2022/10/22 06:01:42;;;;;;;11.10;4.72;;;12.90;1.00;;;;;;5033296;28;20033;-78
2022/10/22 06:04:11;;;;;;;9.38;3.90;;;12.90;1.00;;;;;;5028881;28;20077;-78
2022/10/22 06:06:38;;;;;;;15.27;4.22;;;12.90;1.00;;;;;;5032729;28;20017;-78
2022/10/22 06:09:15;;;;;;;9.57;4.15;;;12.80;1.00;;;;;;5039100;28;20108;-78
2022/10/22 06:11:40;;;;;;;13.27;4.85;;;12.80;1.00;;;;;;5037672;28;20037;-78
2022/10/22 06:14:06;;;;;;;11.68;4.80;;;12.80;1.00;;;;;;5030093;28;20071;-78
2022/10/22 06:16:32;;;;;;;10.63;3.75;;;12.80;1.00;;;;;;5032627;28;20080;-78
2022/10/22 06:19:00;;;;;;;8.95;3.78;;;12.70;1.00;;;;;;5034248;28;20027;-78
2022/10/22 06:21:26;;;;;;;13.73;4.65;;;12.80;1.00;;;;;;5028963;28;20121;-77
2022/10/22 06:23:54;;;;;;;7.70;3.55;;;12.70;1.00;;;;;;5031784;28;20089;-78
2022/10/22 06:26:19;;;;;;;12.75;4.20;;;12.70;1.00;;;;;;5029818;28;20018;-79
2022/10/22 06:28:45;;;;;;;10.77;3.70;;;12.70;1.00;;;;;;5031576;28;20040;-78
2022/10/22 06:31:10;;;;;;;11.02;3.78;;;12.70;1.00;;;;;;5032256;28;20052;-78
2022/10/22 06:33:41;;;;;;;10.35;3.90;;;12.70;1.00;;;;;;5038228;28;20394;-79
2022/10/22 06:36:12;;;;;;;8.35;3.60;;;12.60;1.00;;;;;;5034876;28;20029;-79
2022/10/22 06:38:38;;;;;;;11.48;4.13;;;12.70;1.00;;;;;;5032186;28;20377;-79
2022/10/22 06:41:11;;;;;;;9.77;4.25;;;12.80;1.00;;;;;;5035471;28;20053;-78
2022/10/22 06:43:37;;;;;;;12.30;3.80;;;12.80;1.00;;;;;;5042363;28;20022;-78
2022/10/22 06:46:08;;;;;;;8.93;3.50;;;12.80;1.00;;;;;;5035481;28;20021;-79
2022/10/22 06:48:36;;;;;;;14.00;3.53;;;12.80;1.00;;;;;;5042417;28;20029;-79
2022/10/22 06:51:04;;;;;;;11.27;3.42;;;12.80;1.00;;;;;;5038158;28;20512;-79
2022/10/22 06:53:30;;;;;;;11.75;3.75;;;12.80;1.00;;;;;;5030750;28;20095;-78
2022/10/22 06:55:55;;;;;;;11.00;4.15;;;12.90;1.00;;;;;;5029803;28;20013;-78
2022/10/22 06:58:21;;;;;;;9.68;3.70;;;12.90;1.00;;;;;;5028413;28;20102;-79
2022/10/22 07:00:47;;;;;;;7.53;3.60;;;12.90;1.00;;;;;;5034364;28;20392;-79
2022/10/22 07:03:13;;;;;;;13.25;3.72;;;12.90;1.00;;;;;;5031577;28;20028;-79
2022/10/22 07:05:40;;;;;;;11.70;3.88;;;12.90;1.00;;;;;;5033850;28;20105;-79
2022/10/22 07:08:06;;;;;;;9.70;3.88;;;13.10;1.00;;;;;;5042335;28;20029;-78
2022/10/22 07:10:32;;;;;;;10.80;3.70;;;13.20;1.00;;;;;;5054470;28;20051;-78
2022/10/22 07:12:58;;;;;;;8.48;3.50;;;13.00;1.00;;;;;;5054416;28;20459;-78
2022/10/22 07:15:23;;;;;;;10.52;3.53;;;13.00;1.00;;;;;;5054328;28;20029;-78
2022/10/22 07:17:50;;;;;;;9.05;3.63;;;13.10;99.90;;;;;;5054160;28;20020;-78
2022/10/22 07:20:17;;;;;;;8.63;4.00;;;13.20;99.90;;;;;;5047763;28;20056;-78
2022/10/22 07:22:43;;;;;;;12.90;4.22;;;13.30;99.90;;;;;;5034142;28;20742;-78
2022/10/22 07:25:09;;;;;;;6.15;3.10;;;13.50;99.90;;;;;;5033296;28;20025;-77
2022/10/22 07:27:35;;;;;;;8.15;3.78;;;13.70;99.90;;;;;;5034077;28;20104;-78
2022/10/22 07:30:00;;;;;;;17.25;3.83;;;13.80;99.90;;;;;;5033897;28;20026;-78
2022/10/22 07:32:26;;;;;;;10.90;3.78;;;13.90;99.90;;;;;;5033654;28;20025;-78
2022/10/22 07:34:52;;;;;;;12.50;3.75;;;14.00;99.90;;;;;;5025889;28;20052;-78
2022/10/22 07:37:20;;;;;;;11.00;3.60;;;14.10;99.90;;;;;;5031551;28;20532;-78
2022/10/22 07:39:46;;;;;;;10.65;4.00;;;14.20;99.90;;;;;;5035397;28;20472;-78
2022/10/22 07:42:12;;;;;;;10.10;3.65;;;14.70;99.90;;;;;;5030945;28;20040;-78
2022/10/22 07:44:38;;;;;;;9.95;4.15;;;16.20;99.90;;;;;;5034661;28;20021;-78
2022/10/22 07:47:03;;;;;;;7.95;3.30;;;19.30;99.90;;;;;;5034700;28;20100;-78
2022/10/22 07:49:29;;;;;;;10.55;3.38;;;18.00;99.90;;;;;;5034112;28;20506;-78
2022/10/22 07:51:55;;;;;;;9.35;3.28;;;16.70;99.90;;;;;;5029058;28;20026;-78
2022/10/22 07:54:21;;;;;;;8.77;3.78;;;16.10;99.90;;;;;;5037809;28;20013;-77
2022/10/22 07:56:47;;;;;;;7.95;3.50;;;16.00;99.90;;;;;;5033974;28;20140;-78
2022/10/22 07:59:13;;;;;;;10.57;3.25;;;16.00;99.90;;;;;;5036739;28;20468;-78
2022/10/22 08:01:38;;;;;;;10.48;3.35;;;16.20;99.90;;;;;;5034414;28;20385;-79
2022/10/22 08:04:07;;;;;;;9.13;2.85;;;16.20;99.90;;;;;;5033373;28;20049;-78
2022/10/22 08:06:33;;;;;;;6.50;3.08;;;16.10;99.90;;;;;;5028772;28;20014;-78
2022/10/22 08:08:58;;;;;;;9.57;3.13;;;16.10;99.90;;;;;;5039100;28;20063;-78
2022/10/22 08:11:25;;;;;;;9.40;3.30;;;16.40;99.90;;;;;;5037588;28;20056;-78
2022/10/22 08:13:51;;;;;;;4.72;2.88;;;16.60;99.90;;;;;;5032905;28;20045;-78
2022/10/22 08:16:17;;;;;;;7.45;2.90;;;16.70;99.90;;;;;;5029243;28;20061;-79
2022/10/22 08:18:43;;;;;;;9.93;3.25;;;16.50;99.90;;;;;;5032597;28;20026;-78
2022/10/22 08:21:09;;;;;;;9.23;2.90;;;16.60;99.90;;;;;;5032630;28;20022;-78
2022/10/22 08:23:35;;;;;;;9.55;3.00;;;16.80;99.90;;;;;;5032806;28;20013;-78
2022/10/22 08:26:01;;;;;;;5.32;2.72;;;17.10;99.90;;;;;;5032929;28;20018;-78
2022/10/22 08:28:28;;;;;;;10.98;3.20;;;17.30;99.90;;;;;;5030315;28;20028;-78
2022/10/22 08:30:54;;;;;;;8.65;2.90;;;17.30;99.90;;;;;;5029643;28;20029;-79
2022/10/22 08:33:20;;;;;;;9.55;3.00;;;17.40;99.90;;;;;;5034554;28;20068;-78
2022/10/22 08:35:50;;;;;;;10.27;3.05;;;17.60;99.90;;;;;;5031203;28;20037;-79
2022/10/22 08:38:16;;;;;;;9.18;3.00;;;17.90;99.90;;;;;;5023762;28;20029;-79
2022/10/22 08:40:43;;;;;;;7.47;3.08;;;17.50;99.90;;;;;;5032952;28;20037;-79
2022/10/22 08:43:28;;;;;;;9.45;3.03;;;17.20;99.90;;;;;;5033912;28;20029;-79
2022/10/22 08:46:06;;;;;;;6.50;2.60;;;17.10;99.90;;;;;;4993569;28;20463;-79
2022/10/22 08:48:43;;;;;;;7.97;2.53;;;16.90;99.90;;;;;;5024905;28;20397;-78
2022/10/22 08:51:15;;;;;;;7.07;2.72;;;16.50;99.90;;;;;;5028750;28;20021;-79
2022/10/22 08:54:07;;;;;;;6.93;2.70;;;16.60;99.90;;;;;;5036000;28;20445;-79
2022/10/22 08:56:35;;;;;;;11.98;2.70;;;16.50;99.90;;;;;;5039759;28;20063;-79
2022/10/22 08:59:32;;;;;;;11.55;2.72;;;16.80;99.90;;;;;;5033289;28;20025;-79
2022/10/22 09:01:59;;;;;;;9.20;2.65;;;17.20;99.90;;;;;;5012519;28;20460;-79
2022/10/22 09:04:40;;;;;;;9.52;2.92;;;17.20;99.90;;;;;;5038787;28;20592;-79
2022/10/22 09:07:09;;;;;;;6.40;3.00;;;17.20;99.90;;;;;;5031921;28;20029;-79
2022/10/22 09:09:45;;;;;;;10.35;2.95;;;17.40;99.90;;;;;;5032678;28;20021;-80
2022/10/22 09:12:14;;;;;;;5.47;2.45;;;17.40;99.90;;;;;;5040968;28;20024;-79
2022/10/22 09:14:40;;;;;;;9.88;2.83;;;17.70;99.90;;;;;;5033287;28;20053;-79
2022/10/22 09:17:20;;;;;;;7.82;2.50;;;18.20;99.90;;;;;;5031404;28;20049;-79
2022/10/22 09:20:00;;;;;;;9.25;3.10;;;18.20;99.90;;;;;;5027531;28;20041;-78
2022/10/22 09:22:41;;;;;;;8.55;2.60;;;18.30;99.90;;;;;;5030410;28;20026;-78
2022/10/22 09:25:28;;;;;;;7.63;2.30;;;17.70;99.90;;;;;;5027750;28;20030;-79
2022/10/22 09:27:57;;;;;;;10.77;2.88;;;17.70;99.90;;;;;;5031884;28;20472;-79
2022/10/22 09:30:25;;;;;;;7.93;3.17;;;17.40;99.90;;;;;;5032773;28;20075;-79
2022/10/22 09:33:05;;;;;;;7.68;2.78;;;17.20;99.90;;;;;;5032144;28;20053;-78
2022/10/22 09:35:42;;;;;;;10.05;2.90;;;17.20;99.90;;;;;;5032097;28;20025;-79
2022/10/22 09:38:08;;;;;;;8.43;3.22;;;17.10;99.90;;;;;;5022570;28;20061;-78
2022/10/22 09:40:51;;;;;;;8.52;3.35;;;17.60;99.90;;;;;;5012525;28;20062;-78
2022/10/22 09:43:17;;;;;;;8.20;2.85;;;17.90;99.90;;;;;;5012442;28;20034;-78
2022/10/22 09:45:45;;;;;;;6.57;2.78;;;18.70;99.90;;;;;;5031786;28;20040;-79
2022/10/22 09:48:13;;;;;;;11.20;3.25;;;21.20;99.90;;;;;;5033337;28;20026;-79
2022/10/22 09:50:43;;;;;;;8.52;3.17;;;22.90;99.90;;;;;;5034590;28;20099;-79
2022/10/22 09:53:11;;;;;;;7.70;3.40;;;22.40;99.90;;;;;;5033131;28;20049;-79
2022/10/22 09:55:41;;;;;;;6.90;2.92;;;22.60;99.90;;;;;;5033788;28;20021;-79
2022/10/22 09:58:13;;;;;;;8.30;4.05;;;21.90;99.90;;;;;;5033077;28;20033;-79
2022/10/22 10:00:42;;;;;;;9.52;3.63;;;21.20;99.90;;;;;;5036378;28;20045;-79
2022/10/22 10:03:19;;;;;;;5.03;2.80;;;21.40;99.90;;;;;;5027412;28;20036;-79
2022/10/22 10:05:51;;;;;;;7.93;3.00;;;21.70;99.90;;;;;;5038040;28;20044;-79
2022/10/22 10:08:17;;;;;;;8.45;3.00;;;21.10;99.90;;;;;;5032187;28;20079;-79
2022/10/22 10:10:51;;;;;;;8.50;2.85;;;21.20;99.90;;;;;;5032275;28;20021;-79
2022/10/22 10:13:34;;;;;;;5.78;2.83;;;21.40;99.90;;;;;;5033036;28;20026;-79
2022/10/22 10:16:11;;;;;;;5.25;2.83;;;20.60;99.90;;;;;;5028720;28;20025;-79
2022/10/22 10:19:03;;;;;;;12.10;3.88;;;20.40;99.70;;;;;;5030957;28;20036;-79
2022/10/22 10:21:50;;;;;;;6.25;3.25;;;19.70;99.90;;;;;;5030728;28;20503;-79
2022/10/22 10:24:46;;;;;;;10.63;4.13;;;19.30;99.90;;;;;;5029820;28;20025;-79
2022/10/22 10:27:24;;;;;;;7.25;3.35;;;18.40;99.90;;;;;;5030535;28;20431;-79
2022/10/22 10:30:00;;;;;;;7.80;3.83;;;18.00;99.90;;;;;;5032794;28;20112;-79
2022/10/22 10:32:56;;;;;;;12.95;4.40;;;17.90;99.90;;;;;;5037434;28;20025;-80
2022/10/22 10:35:26;;;;;;;7.20;4.35;;;17.60;99.90;;;;;;5027188;28;20512;-80
2022/10/22 10:38:31;;;;;;;8.70;4.60;;;17.20;99.90;;;;;;5036194;28;20032;-80
2022/10/22 10:41:25;;;;;;;10.45;5.00;;;17.00;99.90;;;;;;5028142;28;20439;-79
2022/10/22 10:44:26;;;;;;;12.77;4.75;;;17.00;99.90;;;;;;5030409;28;20040;-80
2022/10/22 10:46:54;;;;;;;15.05;4.88;;;17.00;99.90;;;;;;5035660;28;20137;-79
2022/10/22 10:49:25;;;;;;;7.20;4.07;;;17.20;99.90;;;;;;5037829;28;20060;-78
2022/10/22 10:52:03;;;;;;;10.45;4.30;;;17.20;99.90;;;;;;5031202;28;20029;-78
2022/10/22 10:54:50;;;;;;;9.07;4.15;;;17.50;99.90;;;;;;5027456;28;20558;-78
2022/10/22 10:57:47;;;;;;;6.53;4.18;;;17.60;99.90;;;;;;5032944;28;20057;-78
2022/10/22 11:00:19;;;;;;;10.48;4.32;;;17.50;99.90;;;;;;5044794;28;20044;-79
2022/10/22 11:03:03;;;;;;;11.57;4.53;;;17.40;99.90;;;;;;5035835;28;20026;-79
2022/10/22 11:05:42;;;;;;;7.43;3.70;;;17.30;99.90;;;;;;5035542;28;20476;-78
2022/10/22 11:08:12;;;;;;;9.57;4.47;;;17.30;99.90;;;;;;5040498;28;20112;-78
2022/10/22 11:11:01;;;;;;;10.05;4.28;;;17.40;99.90;;;;;;5039893;28;20289;-78
2022/10/22 11:13:32;;;;;;;7.60;4.50;;;17.20;99.90;;;;;;5030609;28;20539;-79
2022/10/22 11:16:09;;;;;;;9.38;4.55;;;17.10;99.90;;;;;;5030999;28;20095;-79
2022/10/22 11:18:47;;;;;;;8.20;4.82;;;17.10;99.90;;;;;;5031791;28;20033;-78
2022/10/22 11:21:41;;;;;;;9.25;4.15;;;17.40;99.90;;;;;;5028343;28;20045;-78
2022/10/22 11:24:26;;;;;;;10.13;4.40;;;17.30;99.90;;;;;;5028831;28;20025;-79
2022/10/22 11:26:55;;;;;;;9.80;4.65;;;17.10;99.90;;;;;;5033684;28;20033;-79
2022/10/22 11:29:29;;;;;;;8.93;4.10;;;17.20;99.90;;;;;;5030369;28;20026;-79
2022/10/22 11:31:56;;;;;;;9.75;3.95;;;17.80;99.90;;;;;;5020482;28;20334;-78
2022/10/22 11:34:29;;;;;;;13.35;3.47;;;18.10;99.90;;;;;;5013545;28;20046;-78
2022/10/22 11:36:57;;;;;;;9.93;2.80;;;18.60;99.90;;;;;;5013914;28;20044;-79
2022/10/22 11:39:34;;;;;;;5.72;2.83;;;18.70;99.90;;;;;;5013684;28;20029;-78
2022/10/22 11:42:08;;;;;;;8.27;2.13;;;18.60;99.90;;;;;;5013150;28;20109;-78
2022/10/22 11:45:01;;;;;;;7.82;1.77;;;18.50;99.90;;;;;;5021749;28;20071;-78
2022/10/22 11:47:33;;;;;;;7.32;1.80;;;18.40;99.90;;;;;;5035254;28;20064;-78
2022/10/22 11:50:24;;;;;;;5.05;1.92;;;18.70;99.90;;;;;;5030221;28;20017;-78
2022/10/22 11:53:06;;;;;;;7.93;1.90;;;18.70;99.90;;;;;;5032444;28;20553;-78
2022/10/22 11:55:51;;;;;;;6.75;1.77;;;18.80;99.90;;;;;;5030542;28;20025;-78
2022/10/22 11:58:28;;;;;;;8.02;1.60;;;18.80;99.90;;;;;;5026356;28;20017;-78
2022/10/22 12:01:09;;;;;;;3.95;1.45;;;18.90;99.90;;;;;;5040912;28;20460;-79
2022/10/22 12:03:42;;;;;;;5.00;1.10;;;18.90;99.90;;;;;;5039546;28;20018;-78
2022/10/22 12:06:11;;;;;;;5.00;1.17;;;19.20;99.90;;;;;;5021884;28;20022;-78
2022/10/22 12:08:51;;;;;;;4.88;1.10;;;19.00;99.90;;;;;;5040097;28;20025;-78
2022/10/22 12:11:24;;;;;;;5.85;1.30;;;19.00;99.90;;;;;;5029618;28;20033;-78
2022/10/22 12:14:13;;;;;;;7.50;1.20;;;19.10;99.90;;;;;;5034693;28;20017;-78
2022/10/22 12:16:43;;;;;;;7.47;1.05;;;19.00;99.90;;;;;;5032522;28;20083;-78
2022/10/22 12:19:13;;;;;;;4.25;1.00;;;19.10;99.90;;;;;;5028215;28;20291;-78
2022/10/22 12:21:42;;;;;;;8.82;1.35;;;19.00;99.90;;;;;;5030160;28;20033;-78
2022/10/22 12:24:14;;;;;;;5.88;1.23;;;19.20;99.90;;;;;;5031941;28;20017;-79
2022/10/22 12:26:39;;;;;;;7.57;1.20;;;19.50;99.90;;;;;;5034434;28;20476;-79
2022/10/22 12:29:09;;;;;;;9.30;1.60;;;19.70;99.90;;;;;;5029954;28;20028;-79
2022/10/22 12:31:37;;;;;;;6.57;1.17;;;19.70;99.90;;;;;;5030801;28;20060;-78
2022/10/22 12:34:03;;;;;;;8.30;2.22;;;19.80;99.90;;;;;;5028328;28;20052;-79
2022/10/22 12:36:32;;;;;;;9.98;2.38;;;19.70;99.90;;;;;;5030300;28;20386;-79
2022/10/22 12:39:12;;;;;;;9.68;1.80;;;19.60;99.90;;;;;;5026947;28;20022;-79
2022/10/22 12:41:39;;;;;;;7.70;2.15;;;19.90;99.90;;;;;;5031820;28;20041;-78
2022/10/22 12:44:05;;;;;;;4.03;0.65;;;19.90;99.90;;;;;;5033733;28;20029;-78
2022/10/22 12:46:33;;;;;;;8.45;1.15;;;19.90;99.90;;;;;;5043982;28;20017;-79
2022/10/22 12:49:01;;;;;;;5.38;1.13;;;20.10;99.90;;;;;;5030499;28;20120;-79
2022/10/22 12:51:27;;;;;;;6.75;1.13;;;20.00;99.90;;;;;;5032597;28;20510;-80
2022/10/22 12:54:00;;;;;;;2.70;0.77;;;19.70;99.90;;;;;;5032884;28;20025;-80
2022/10/22 12:56:30;;;;;;;3.72;0.82;;;19.30;99.90;;;;;;5032889;28;20112;-80
2022/10/22 12:59:00;;;;;;;9.60;1.10;;;19.30;99.90;;;;;;5032938;28;20060;-80
2022/10/22 13:01:33;;;;;;;5.30;0.90;;;19.20;99.90;;;;;;5033065;28;20470;-80
2022/10/22 13:04:15;;;;;;;4.13;0.90;;;19.20;99.90;;;;;;5031553;28;20033;-80